Yardville, NJ

1:42 AM EDT on October 21, 2014 (GMT -0400)
Trenton Mercer | Change Station
CLOSE
Current Station
Airport
Location: Trenton,
Elevation: 210 ft
Nearby Weather Stations

Elev 210 ft 40.28 °N, 74.82 °W | Updated 49 minutes ago

Mostly Cloudy
Mostly Cloudy
52 °F
Feels Like 52 °F
N
0
Wind Variable Wind from North

Today
High -- | Low -- °F
--% Chance of Precip.
Yesterday
High -- | Low -- °F
Precip. -- in
7:15 AM 6:10 PM
Waning Crescent, 7% visible
Pressure 29.93 in
Visibility 10.0 miles
Clouds Few 4900 ft
Dew Point 44 °F
Humidity 74%
Rainfall 0.07 in
Snow Depth Not available.
UV 0 out of 12
Pollen .90 out of 12
Ozone Good
PM2.5 Moderate
Flu Activity Sporadic
METAR KTTN 210453Z AUTO 00000KT 10SM FEW049 11/07 A2995 RMK AO2 SLP135 T01110067 401610006

More Conditions Fewer Conditions

Pressure 29.93 in
Visibility 10.0 miles
Clouds Few 4900 ft
Dew Point 44 °F
Humidity 74%
Rainfall 0.07 in
Snow Depth Not available.
UV 0 out of 12
Pollen .90 out of 12
Ozone Good
PM2.5 Moderate
Flu Activity Sporadic
METAR KTTN 210453Z AUTO 00000KT 10SM FEW049 11/07 A2995 RMK AO2 SLP135 T01110067 401610006

More Conditions Fewer Conditions

10-Day Weather Forecast

Almanac

Astronomy

Oct. 21, 2014 Rise Set
Actual Time 7:15 AM EDT 6:10 PM EDT
Civil Twilight 6:47 AM EDT 6:37 PM EDT
Nautical Twilight 6:16 AM EDT 7:09 PM EDT
Astronomical Twilight 5:44 AM EDT 7:40 PM EDT
Moon 4:57 AM EDT 5:02 PM EDT
Length of Visible Light 11h 49m
Length of Day
10h 54m
Tomorrow will be 2m 29s shorter.
Waning Crescent, 7% of the Moon is Illuminated
Today
Waning Crescent
Oct 23
New
Oct 30
First Quarter
Nov 6
Full
Nov 14
Last Quarter

Today's Extremes

State Highs State Lows

Community

WunderPhotos

Upload Photos

1,763,613 photos uploaded!

Nearby

Air Quality

  Air Quality AQ Index Pollutant
Yesterday Moderate
PM2.5
Yesterday Good
OZONE
Current Moderate
PM2.5
Current Good
OZONE
Tuesday Moderate
PM2.5
Wednesday Good
PM2.5
Thursday Good
PM2.5

Snow Depth

Station Depth Elevation
No new snow has been reported.

Earthquake Activity

City Distance Mag. Time & Date
No recent earthquake activity has been reported nearby.
Minimum magnitude displayed is 2.5.

Coastal Water Temperatures

Place Temperature
Sandy Hook, NJ 60.1 °F
The Battery, NY 63.0 °F
Bergen Point West Reach, NJ 62.1 °F
Kings Point, NY 60.1 °F

Nearby Weather Stations